Time;durP1;ratioP1;P1;durP2;ratioP2;P2;SDS_P1;SDS_P2;PMS_P1;PMS_P2;Temp;Humidity;BMP_temperature;BMP_pressure;BME280_temperature;BME280_humidity;BME280_pressure;Samples;Min_cycle;Max_cycle;Signal;HPM_P1;HPM_P2
2022/03/21 00:01:51;;;;;;;11.93;6.80;;;;;;;;;;4979601;28;20074;-83
2022/03/21 00:04:21;;;;;;;12.25;6.32;;;;;;;;;;4979822;28;20141;-83
2022/03/21 00:06:52;;;;;;;12.55;6.88;;;;;;;;;;4996631;28;20077;-83
2022/03/21 00:09:20;;;;;;;11.57;5.93;;;;;;;;;;4996905;28;20101;-83
2022/03/21 00:11:50;;;;;;;14.43;6.82;;;;;;;;;;4977878;28;20082;-83
2022/03/21 00:14:18;;;;;;;10.98;5.45;;;;;;;;;;4963181;28;20073;-83
2022/03/21 00:16:46;;;;;;;12.13;6.18;;;;;;;;;;4978553;28;20371;-83
2022/03/21 00:19:16;;;;;;;17.00;8.77;;;;;;;;;;4978596;28;20038;-83
2022/03/21 00:21:43;;;;;;;11.52;6.22;;;;;;;;;;4977445;28;20050;-84
2022/03/21 00:24:14;;;;;;;10.02;5.95;;;;;;;;;;4994628;28;20460;-83
2022/03/21 00:26:41;;;;;;;10.68;6.05;;;;;;;;;;4994624;28;20078;-83
2022/03/21 00:29:09;;;;;;;12.00;6.18;;;;;;;;;;4995249;28;20054;-83
2022/03/21 00:31:37;;;;;;;11.32;6.53;;;;;;;;;;4979007;28;20391;-83
2022/03/21 00:34:07;;;;;;;11.43;6.43;;;;;;;;;;4996394;28;20134;-83
2022/03/21 00:36:35;;;;;;;15.18;6.28;;;;;;;;;;4996652;28;20081;-83
2022/03/21 00:39:02;;;;;;;15.43;7.40;;;;;;;;;;4993743;28;20109;-83
2022/03/21 00:41:33;;;;;;;12.25;6.47;;;;;;;;;;4978912;28;20396;-83
2022/03/21 00:44:01;;;;;;;12.48;6.35;;;;;;;;;;4996017;28;20085;-83
2022/03/21 00:46:28;;;;;;;11.40;6.05;;;;;;;;;;4996127;28;20046;-83
2022/03/21 00:48:55;;;;;;;11.55;6.50;;;;;;;;;;4994831;28;20050;-83
2022/03/21 00:51:22;;;;;;;11.88;6.28;;;;;;;;;;4995645;28;20077;-83
2022/03/21 00:53:49;;;;;;;11.07;6.18;;;;;;;;;;4993695;28;20042;-83
2022/03/21 00:56:17;;;;;;;12.05;6.75;;;;;;;;;;4995296;28;20542;-83
2022/03/21 00:58:46;;;;;;;12.95;6.22;;;;;;;;;;4995593;28;20443;-83
2022/03/21 01:01:14;;;;;;;11.02;6.03;;;;;;;;;;4981947;28;20439;-83
2022/03/21 01:03:41;;;;;;;10.55;6.43;;;;;;;;;;5004939;28;20121;-83
2022/03/21 01:06:09;;;;;;;11.10;6.40;;;;;;;;;;5018498;28;20061;-83
2022/03/21 01:08:36;;;;;;;12.57;5.95;;;;;;;;;;5019412;28;20085;-83
2022/03/21 01:11:03;;;;;;;12.90;6.10;;;;;;;;;;5019056;28;20078;-83
2022/03/21 01:13:30;;;;;;;11.57;7.18;;;;;;;;;;5001924;28;20073;-83
2022/03/21 01:16:00;;;;;;;11.50;6.50;;;;;;;;;;5001860;28;20121;-82
2022/03/21 01:18:29;;;;;;;11.98;7.18;;;;;;;;;;5016760;28;20089;-83
2022/03/21 01:20:56;;;;;;;10.38;6.20;;;;;;;;;;5016851;28;20077;-83
2022/03/21 01:23:23;;;;;;;10.48;5.97;;;;;;;;;;5018052;28;20074;-83
2022/03/21 01:25:51;;;;;;;13.10;6.35;;;;;;;;;;5001301;28;20050;-83
2022/03/21 01:28:18;;;;;;;13.18;6.90;;;;;;;;;;4981086;28;20133;-83
2022/03/21 01:30:45;;;;;;;12.57;5.93;;;;;;;;;;4985491;28;20042;-83
2022/03/21 01:33:17;;;;;;;11.25;6.28;;;;;;;;;;5019166;28;20070;-83
2022/03/21 01:35:45;;;;;;;13.20;6.07;;;;;;;;;;5018952;28;20101;-83
2022/03/21 01:38:14;;;;;;;12.45;6.65;;;;;;;;;;5001121;28;20081;-83
2022/03/21 01:40:42;;;;;;;13.20;6.50;;;;;;;;;;5000900;28;20050;-83
2022/03/21 01:43:11;;;;;;;12.27;6.65;;;;;;;;;;5017675;28;20097;-83
2022/03/21 01:45:39;;;;;;;12.35;6.57;;;;;;;;;;5016308;28;20069;-83
2022/03/21 01:48:07;;;;;;;12.90;7.13;;;;;;;;;;5000284;28;20046;-83
2022/03/21 01:50:37;;;;;;;13.77;7.45;;;;;;;;;;5009623;28;20045;-83
2022/03/21 01:55:45;;;;;;;12.95;6.80;;;;;;;;;;5011207;28;20048;-83
2022/03/21 01:58:14;;;;;;;10.98;5.93;;;;;;;;;;5000288;28;20129;-83
2022/03/21 02:00:42;;;;;;;12.38;7.00;;;;;;;;;;4996777;28;20079;-83
2022/03/21 02:03:09;;;;;;;10.55;6.22;;;;;;;;;;4998498;28;20416;-83
2022/03/21 02:05:39;;;;;;;11.25;6.80;;;;;;;;;;4963235;28;20050;-83
2022/03/21 02:08:06;;;;;;;10.57;6.85;;;;;;;;;;4981952;28;20084;-83
2022/03/21 02:10:34;;;;;;;11.88;6.38;;;;;;;;;;4997241;28;20073;-83
2022/03/21 02:13:03;;;;;;;11.10;6.13;;;;;;;;;;4962757;28;20082;-83
2022/03/21 02:15:31;;;;;;;11.00;6.03;;;;;;;;;;4997364;28;20085;-83
2022/03/21 02:18:01;;;;;;;10.60;5.90;;;;;;;;;;4999170;28;20125;-83
2022/03/21 02:20:30;;;;;;;15.40;6.60;;;;;;;;;;4998571;28;20069;-83
2022/03/21 02:23:07;;;;;;;11.48;6.35;;;;;;;;;;4981475;28;20038;-82
2022/03/21 02:25:37;;;;;;;14.07;6.20;;;;;;;;;;4999678;28;20046;-83
2022/03/21 02:28:07;;;;;;;11.57;6.53;;;;;;;;;;4977416;28;20081;-83
2022/03/21 02:30:36;;;;;;;15.13;7.18;;;;;;;;;;4996136;28;20483;-83
2022/03/21 02:33:05;;;;;;;12.63;6.70;;;;;;;;;;4998057;28;20077;-83
2022/03/21 02:35:33;;;;;;;11.85;6.82;;;;;;;;;;4998023;28;20077;-83
2022/03/21 02:38:01;;;;;;;11.85;6.22;;;;;;;;;;4995360;28;20045;-83
2022/03/21 02:40:29;;;;;;;12.43;7.00;;;;;;;;;;4997747;28;20057;-82
2022/03/21 02:42:58;;;;;;;15.90;7.13;;;;;;;;;;4997775;28;20078;-82
2022/03/21 02:45:25;;;;;;;11.95;6.47;;;;;;;;;;4979527;28;20042;-82
2022/03/21 02:47:53;;;;;;;12.10;6.13;;;;;;;;;;4995095;28;20084;-83
2022/03/21 02:50:26;;;;;;;11.93;6.05;;;;;;;;;;4977266;28;20518;-82
2022/03/21 02:52:54;;;;;;;14.82;6.85;;;;;;;;;;4991992;28;20128;-82
2022/03/21 02:55:21;;;;;;;13.88;7.00;;;;;;;;;;5013833;28;20068;-82
2022/03/21 02:57:49;;;;;;;16.65;7.10;;;;;;;;;;4999822;28;20042;-83
2022/03/21 03:00:18;;;;;;;11.57;6.32;;;;;;;;;;5017463;28;20097;-83
2022/03/21 03:02:46;;;;;;;12.57;6.22;;;;;;;;;;5016320;28;20482;-83
2022/03/21 03:05:16;;;;;;;13.68;6.72;;;;;;;;;;5017575;28;20073;-83
2022/03/21 03:07:47;;;;;;;12.55;6.93;;;;;;;;;;4988571;28;20553;-83
2022/03/21 03:10:14;;;;;;;12.57;7.30;;;;;;;;;;4964213;28;20057;-83
2022/03/21 03:12:41;;;;;;;12.57;7.32;;;;;;;;;;4997358;28;20046;-83
2022/03/21 03:15:10;;;;;;;10.82;6.15;;;;;;;;;;4997178;28;20084;-83
2022/03/21 03:17:39;;;;;;;11.20;5.63;;;;;;;;;;4995243;28;20455;-82
2022/03/21 03:20:08;;;;;;;15.20;7.63;;;;;;;;;;4996570;28;20132;-83
2022/03/21 03:22:36;;;;;;;11.45;6.75;;;;;;;;;;4995877;28;20057;-82
2022/03/21 03:25:03;;;;;;;11.80;6.05;;;;;;;;;;4997112;28;20077;-82
2022/03/21 03:27:30;;;;;;;12.07;6.30;;;;;;;;;;4980203;28;20038;-82
2022/03/21 03:29:57;;;;;;;13.57;7.00;;;;;;;;;;4983514;28;20133;-83
2022/03/21 03:32:27;;;;;;;13.32;6.35;;;;;;;;;;4995281;28;20043;-83
2022/03/21 03:34:58;;;;;;;14.43;6.80;;;;;;;;;;4997356;28;20046;-83
2022/03/21 03:37:26;;;;;;;14.38;6.70;;;;;;;;;;4979158;28;20066;-83
2022/03/21 03:39:53;;;;;;;13.18;6.72;;;;;;;;;;4979072;28;20073;-82
2022/03/21 03:42:21;;;;;;;11.52;6.82;;;;;;;;;;4994064;28;20083;-82
2022/03/21 03:44:51;;;;;;;13.90;7.22;;;;;;;;;;4979717;28;20132;-83
2022/03/21 03:47:18;;;;;;;13.80;6.65;;;;;;;;;;4963373;28;20546;-83
2022/03/21 03:49:45;;;;;;;11.30;6.82;;;;;;;;;;4962990;28;20069;-82
2022/03/21 03:52:15;;;;;;;13.82;7.72;;;;;;;;;;4996022;28;20521;-82
2022/03/21 03:54:42;;;;;;;10.88;6.10;;;;;;;;;;4995838;28;20082;-83
2022/03/21 03:57:10;;;;;;;14.32;6.57;;;;;;;;;;4992711;28;20078;-82
2022/03/21 03:59:38;;;;;;;12.23;6.40;;;;;;;;;;4977962;28;20484;-82
2022/03/21 04:02:05;;;;;;;14.60;6.53;;;;;;;;;;4978744;28;20094;-83
2022/03/21 04:04:32;;;;;;;13.13;6.50;;;;;;;;;;4992434;28;20466;-83
2022/03/21 04:06:59;;;;;;;13.63;7.05;;;;;;;;;;4997291;28;20443;-83
2022/03/21 04:09:29;;;;;;;14.95;7.45;;;;;;;;;;4998559;28;20046;-83
2022/03/21 04:11:56;;;;;;;13.38;6.53;;;;;;;;;;4998286;28;20081;-88
2022/03/21 04:14:26;;;;;;;15.38;7.30;;;;;;;;;;4997219;28;20054;-87
2022/03/21 04:16:53;;;;;;;16.88;7.55;;;;;;;;;;4997786;28;20466;-87
2022/03/21 04:19:21;;;;;;;12.27;6.95;;;;;;;;;;5014407;28;20552;-86
2022/03/21 04:21:49;;;;;;;13.82;6.97;;;;;;;;;;5014879;28;20041;-86
2022/03/21 04:24:16;;;;;;;13.80;6.80;;;;;;;;;;4999646;28;20042;-86
2022/03/21 04:26:46;;;;;;;12.75;6.47;;;;;;;;;;4993091;28;20101;-86
2022/03/21 04:29:21;;;;;;;12.52;6.72;;;;;;;;;;4961310;28;20065;-87
2022/03/21 04:31:48;;;;;;;12.95;7.22;;;;;;;;;;5008536;28;20102;-86
2022/03/21 04:34:16;;;;;;;11.10;6.43;;;;;;;;;;4994831;28;20041;-86
2022/03/21 04:36:44;;;;;;;11.63;6.50;;;;;;;;;;5001200;28;20141;-87
2022/03/21 04:39:11;;;;;;;15.38;7.20;;;;;;;;;;5000740;28;20453;-87
2022/03/21 04:41:39;;;;;;;15.80;7.30;;;;;;;;;;5015930;28;20100;-87
2022/03/21 04:44:09;;;;;;;11.38;6.13;;;;;;;;;;5014254;28;20042;-87
2022/03/21 04:46:36;;;;;;;12.82;6.40;;;;;;;;;;4998512;28;20050;-83
2022/03/21 04:49:04;;;;;;;13.05;7.35;;;;;;;;;;4968816;28;20395;-85
2022/03/21 04:51:32;;;;;;;15.63;8.38;;;;;;;;;;4984495;28;20046;-84
2022/03/21 04:53:59;;;;;;;12.23;6.35;;;;;;;;;;4984941;28;20057;-84
2022/03/21 04:56:27;;;;;;;12.65;6.57;;;;;;;;;;4984012;28;20074;-83
2022/03/21 04:58:55;;;;;;;13.40;5.95;;;;;;;;;;4982194;28;20077;-84
2022/03/21 05:01:24;;;;;;;14.05;6.93;;;;;;;;;;4987037;28;20393;-84
2022/03/21 05:03:55;;;;;;;12.55;6.13;;;;;;;;;;5006027;28;20184;-84
2022/03/21 05:06:21;;;;;;;13.57;6.57;;;;;;;;;;4995921;28;20038;-84
2022/03/21 05:08:51;;;;;;;14.85;6.82;;;;;;;;;;4998355;28;20058;-86
2022/03/21 05:11:18;;;;;;;17.48;7.20;;;;;;;;;;4984739;28;20042;-85
2022/03/21 05:13:46;;;;;;;16.10;7.97;;;;;;;;;;5004190;28;20042;-84
2022/03/21 05:16:13;;;;;;;15.98;9.48;;;;;;;;;;4999715;28;20066;-85
2022/03/21 05:18:43;;;;;;;17.77;10.18;;;;;;;;;;4975811;28;20046;-83
2022/03/21 05:21:10;;;;;;;15.82;9.77;;;;;;;;;;4997960;28;20546;-83
2022/03/21 05:32:01;;;;;;;13.02;7.18;;;;;;;;;;4980529;28;20481;-85
2022/03/21 05:37:16;;;;;;;13.50;7.68;;;;;;;;;;4996755;28;20415;-83
2022/03/21 05:42:25;;;;;;;13.70;7.75;;;;;;;;;;4977578;28;20046;-83
2022/03/21 05:44:52;;;;;;;20.65;8.40;;;;;;;;;;4975636;28;20094;-83
2022/03/21 05:47:20;;;;;;;22.90;10.93;;;;;;;;;;4991118;28;20440;-87
2022/03/21 05:49:47;;;;;;;21.10;10.77;;;;;;;;;;4982302;28;20077;-83
2022/03/21 05:52:15;;;;;;;21.77;9.23;;;;;;;;;;4973790;28;20046;-85
2022/03/21 05:54:42;;;;;;;16.98;8.95;;;;;;;;;;4977400;28;20405;-84
2022/03/21 05:57:10;;;;;;;18.83;9.48;;;;;;;;;;4974814;28;20066;-84
2022/03/21 06:02:21;;;;;;;15.63;7.32;;;;;;;;;;4991324;28;20049;-83
2022/03/21 06:04:52;;;;;;;15.20;7.50;;;;;;;;;;5004948;28;20105;-83
2022/03/21 06:07:19;;;;;;;14.02;7.30;;;;;;;;;;4990806;28;20577;-84
2022/03/21 06:09:48;;;;;;;14.90;8.38;;;;;;;;;;4992228;28;20046;-83
2022/03/21 06:12:15;;;;;;;17.25;8.65;;;;;;;;;;4974414;28;20055;-84
2022/03/21 06:14:42;;;;;;;19.83;9.20;;;;;;;;;;4986802;28;20438;-83
2022/03/21 06:17:09;;;;;;;13.32;6.88;;;;;;;;;;4998999;28;20066;-84
2022/03/21 06:19:37;;;;;;;17.17;8.50;;;;;;;;;;4990962;28;20057;-83
2022/03/21 06:22:06;;;;;;;15.80;8.40;;;;;;;;;;4974737;28;20092;-83
2022/03/21 06:24:33;;;;;;;18.25;8.27;;;;;;;;;;4992007;28;20070;-82
2022/03/21 06:27:01;;;;;;;18.95;8.20;;;;;;;;;;4989981;28;20510;-84
2022/03/21 06:29:29;;;;;;;15.95;6.80;;;;;;;;;;4990620;28;20121;-86
2022/03/21 06:31:57;;;;;;;12.50;6.93;;;;;;;;;;4973631;28;20050;-86
2022/03/21 06:34:24;;;;;;;13.95;7.35;;;;;;;;;;4990117;28;20672;-84
2022/03/21 06:36:54;;;;;;;19.38;7.32;;;;;;;;;;4974193;28;20129;-86
2022/03/21 06:39:22;;;;;;;11.95;6.90;;;;;;;;;;4960709;28;20479;-88
2022/03/21 06:41:51;;;;;;;14.32;7.75;;;;;;;;;;4991164;28;20077;-83
2022/03/21 06:44:18;;;;;;;15.93;7.05;;;;;;;;;;4973070;28;20054;-86
2022/03/21 06:46:45;;;;;;;15.77;7.20;;;;;;;;;;4980231;28;20050;-82
2022/03/21 06:49:13;;;;;;;13.75;7.10;;;;;;;;;;5010780;28;20046;-82
2022/03/21 06:51:40;;;;;;;16.52;6.82;;;;;;;;;;5003514;28;20475;-82
2022/03/21 06:54:07;;;;;;;14.75;7.93;;;;;;;;;;4994966;28;20047;-82
2022/03/21 06:56:36;;;;;;;20.02;8.50;;;;;;;;;;4997863;28;20073;-87
2022/03/21 06:59:03;;;;;;;18.15;10.25;;;;;;;;;;4990044;28;20495;-83
2022/03/21 07:01:32;;;;;;;19.38;9.48;;;;;;;;;;4976322;28;20124;-82
2022/03/21 07:03:59;;;;;;;16.52;8.73;;;;;;;;;;4975391;28;20082;-83
2022/03/21 07:06:30;;;;;;;15.50;8.05;;;;;;;;;;4993706;28;20066;-82
2022/03/21 07:09:00;;;;;;;20.58;7.50;;;;;;;;;;4973237;28;20057;-83
2022/03/21 07:11:29;;;;;;;15.25;7.95;;;;;;;;;;4989648;28;20141;-83
2022/03/21 07:13:57;;;;;;;15.35;8.13;;;;;;;;;;4990073;28;20046;-84
2022/03/21 07:16:24;;;;;;;14.18;7.70;;;;;;;;;;4989846;28;20038;-84
2022/03/21 07:18:51;;;;;;;16.15;8.68;;;;;;;;;;4990185;28;20130;-84
2022/03/21 07:21:19;;;;;;;15.68;8.05;;;;;;;;;;4989350;28;20078;-83
2022/03/21 07:23:46;;;;;;;14.30;8.07;;;;;;;;;;4993252;28;20054;-84
2022/03/21 07:26:13;;;;;;;15.68;8.82;;;;;;;;;;4991918;28;20439;-85
2022/03/21 07:28:40;;;;;;;17.13;8.60;;;;;;;;;;4991971;28;20054;-82
2022/03/21 07:31:10;;;;;;;14.55;8.00;;;;;;;;;;4992287;28;20070;-84
2022/03/21 07:33:37;;;;;;;14.25;8.45;;;;;;;;;;4992998;28;20050;-83
2022/03/21 07:36:05;;;;;;;17.70;8.88;;;;;;;;;;4975082;28;20483;-85
2022/03/21 07:38:34;;;;;;;12.65;7.72;;;;;;;;;;4993137;28;20074;-82
2022/03/21 07:41:01;;;;;;;17.52;8.63;;;;;;;;;;4992193;28;20054;-83
2022/03/21 07:43:28;;;;;;;18.52;7.85;;;;;;;;;;4993843;28;20042;-84
2022/03/21 07:48:42;;;;;;;17.42;8.35;;;;;;;;;;4992362;28;20065;-85
2022/03/21 07:51:09;;;;;;;18.77;8.40;;;;;;;;;;4975542;28;20046;-82
2022/03/21 07:53:36;;;;;;;15.55;8.25;;;;;;;;;;4992763;28;20080;-86
2022/03/21 07:56:03;;;;;;;15.30;8.45;;;;;;;;;;4974934;28;20486;-82
2022/03/21 07:58:31;;;;;;;12.68;7.75;;;;;;;;;;4991007;28;20494;-82
2022/03/21 08:00:59;;;;;;;17.73;8.82;;;;;;;;;;4983264;28;20043;-82
2022/03/21 08:03:34;;;;;;;14.00;8.93;;;;;;;;;;4981706;28;20643;-84
2022/03/21 08:06:08;;;;;;;15.32;9.25;;;;;;;;;;4983933;28;20042;-83
2022/03/21 08:08:36;;;;;;;15.43;8.38;;;;;;;;;;4984194;28;20046;-83
2022/03/21 08:11:04;;;;;;;17.88;8.98;;;;;;;;;;4980758;28;20039;-86
2022/03/21 08:13:31;;;;;;;15.98;9.15;;;;;;;;;;4979115;28;20066;-85
2022/03/21 08:15:59;;;;;;;17.88;9.18;;;;;;;;;;4991359;28;20070;-82
2022/03/21 08:18:25;;;;;;;17.30;9.57;;;;;;;;;;4992200;28;20102;-81
2022/03/21 08:20:52;;;;;;;15.15;9.77;;;;;;;;;;4986254;28;20066;-82
2022/03/21 08:23:20;;;;;;;17.48;9.88;;;;;;;;;;4989631;28;20102;-87
2022/03/21 08:25:47;;;;;;;15.70;10.05;;;;;;;;;;4991778;28;20038;-82
2022/03/21 08:28:14;;;;;;;19.38;10.35;;;;;;;;;;4992115;28;20078;-82
2022/03/21 08:30:42;;;;;;;15.80;9.60;;;;;;;;;;4992206;28;20460;-82
2022/03/21 08:33:11;;;;;;;21.77;10.88;;;;;;;;;;4992802;28;20046;-82
2022/03/21 08:35:39;;;;;;;16.23;10.43;;;;;;;;;;4992549;28;20169;-82
2022/03/21 08:38:07;;;;;;;17.35;10.63;;;;;;;;;;4990645;28;20084;-84
2022/03/21 08:40:36;;;;;;;18.67;10.75;;;;;;;;;;4989446;28;20075;-83
2022/03/21 08:43:03;;;;;;;16.27;9.85;;;;;;;;;;4979646;28;20061;-82
2022/03/21 08:45:30;;;;;;;19.23;10.48;;;;;;;;;;4991995;28;20073;-82
2022/03/21 08:47:57;;;;;;;19.30;9.50;;;;;;;;;;4993738;28;20049;-82
2022/03/21 08:50:24;;;;;;;14.15;9.10;;;;;;;;;;4980691;28;20080;-83
2022/03/21 08:52:51;;;;;;;17.27;10.02;;;;;;;;;;4997405;28;20043;-88
2022/03/21 08:55:19;;;;;;;21.15;9.88;;;;;;;;;;4977862;28;20042;-87
2022/03/21 08:57:47;;;;;;;25.58;9.68;;;;;;;;;;4990441;28;20086;-86
2022/03/21 09:00:15;;;;;;;19.38;10.45;;;;;;;;;;4990224;28;20143;-87
2022/03/21 09:02:46;;;;;;;19.85;10.75;;;;;;;;;;4990104;28;20114;-84
2022/03/21 09:05:14;;;;;;;15.73;9.77;;;;;;;;;;4991395;28;20042;-84
2022/03/21 09:07:40;;;;;;;19.70;10.85;;;;;;;;;;4974639;28;20051;-85
2022/03/21 09:10:11;;;;;;;18.02;9.70;;;;;;;;;;4992335;28;20452;-84
2022/03/21 09:12:38;;;;;;;14.77;9.85;;;;;;;;;;4991223;28;20371;-87
2022/03/21 09:15:07;;;;;;;19.77;10.43;;;;;;;;;;4992311;28;20047;-84
2022/03/21 09:17:34;;;;;;;18.52;11.52;;;;;;;;;;4991351;28;20434;-84
2022/03/21 09:20:00;;;;;;;15.50;10.57;;;;;;;;;;4993955;28;20105;-89
2022/03/21 09:22:27;;;;;;;18.30;10.13;;;;;;;;;;5007956;28;20038;-83
2022/03/21 09:24:54;;;;;;;16.70;10.70;;;;;;;;;;4998037;28;20084;-88
2022/03/21 09:27:22;;;;;;;13.65;9.38;;;;;;;;;;4994148;28;20408;-87
2022/03/21 09:29:49;;;;;;;15.10;9.98;;;;;;;;;;4997936;28;20479;-85
2022/03/21 09:32:17;;;;;;;16.65;10.63;;;;;;;;;;4996945;28;20447;-82
2022/03/21 09:34:44;;;;;;;16.13;9.77;;;;;;;;;;4993074;28;20174;-83
2022/03/21 09:37:11;;;;;;;17.17;10.77;;;;;;;;;;4993106;28;20034;-83
2022/03/21 09:39:38;;;;;;;15.93;9.85;;;;;;;;;;4991588;28;20549;-80
2022/03/21 09:42:05;;;;;;;16.30;9.80;;;;;;;;;;4991950;28;20564;-85
2022/03/21 09:44:32;;;;;;;14.23;9.18;;;;;;;;;;4991187;28;20129;-86
2022/03/21 09:48:08;;;;;;;13.45;9.55;;;;;;;;;;4991042;28;20050;-85
2022/03/21 09:49:48;;;;;;;15.18;9.73;;;;;;;;;;4991894;28;20048;-83
2022/03/21 09:52:16;;;;;;;15.52;10.07;;;;;;;;;;4990761;28;20479;-85
2022/03/21 09:54:43;;;;;;;14.18;9.45;;;;;;;;;;4988831;28;20898;-85
2022/03/21 09:57:09;;;;;;;14.90;9.20;;;;;;;;;;4995213;28;20455;-86
2022/03/21 09:59:36;;;;;;;14.38;9.40;;;;;;;;;;4995883;28;20085;-84
2022/03/21 10:02:03;;;;;;;16.35;9.23;;;;;;;;;;4992146;28;20074;-87
2022/03/21 10:04:30;;;;;;;13.73;8.75;;;;;;;;;;4991223;28;20042;-83
2022/03/21 10:07:01;;;;;;;15.63;10.00;;;;;;;;;;4977507;28;20457;-85
2022/03/21 10:09:27;;;;;;;16.65;9.63;;;;;;;;;;4997560;28;20129;-84
2022/03/21 10:11:56;;;;;;;13.00;9.55;;;;;;;;;;4991136;28;20464;-83
2022/03/21 10:14:25;;;;;;;16.30;10.27;;;;;;;;;;4991124;28;20070;-85
2022/03/21 10:16:53;;;;;;;16.48;10.38;;;;;;;;;;4990236;28;20126;-82
2022/03/21 10:19:20;;;;;;;15.18;9.90;;;;;;;;;;4990766;28;20070;-82
2022/03/21 10:22:05;;;;;;;14.90;9.30;;;;;;;;;;4991089;28;20423;-82
2022/03/21 10:24:35;;;;;;;15.40;9.90;;;;;;;;;;4997102;28;20083;-81
2022/03/21 10:27:02;;;;;;;13.80;9.07;;;;;;;;;;4991437;28;20082;-82
2022/03/21 10:29:29;;;;;;;13.98;9.75;;;;;;;;;;4990797;28;20537;-82
2022/03/21 10:31:55;;;;;;;15.00;9.80;;;;;;;;;;4973004;28;20166;-80
2022/03/21 10:34:29;;;;;;;17.35;9.88;;;;;;;;;;4990102;28;20080;-80
2022/03/21 10:37:02;;;;;;;15.35;9.60;;;;;;;;;;4991480;28;20082;-85
2022/03/21 10:39:30;;;;;;;14.18;10.00;;;;;;;;;;4986647;28;20542;-80
2022/03/21 10:41:58;;;;;;;17.75;11.25;;;;;;;;;;4971683;28;20086;-81
2022/03/21 10:44:24;;;;;;;15.18;10.05;;;;;;;;;;4991895;28;20129;-83
2022/03/21 10:46:54;;;;;;;13.18;9.18;;;;;;;;;;4988439;28;20070;-83
2022/03/21 10:49:32;;;;;;;12.90;9.63;;;;;;;;;;4992058;28;20140;-80
2022/03/21 10:52:01;;;;;;;14.48;9.25;;;;;;;;;;4985559;28;20089;-80
2022/03/21 10:54:42;;;;;;;13.15;9.10;;;;;;;;;;4989846;28;20120;-80
2022/03/21 10:57:26;;;;;;;15.35;9.52;;;;;;;;;;4991240;28;20134;-81
2022/03/21 11:00:14;;;;;;;13.27;9.20;;;;;;;;;;4993270;28;20046;-86
2022/03/21 11:02:50;;;;;;;17.05;9.60;;;;;;;;;;4990750;28;20510;-79
2022/03/21 11:05:17;;;;;;;13.50;9.85;;;;;;;;;;4989623;28;20099;-81
2022/03/21 11:07:49;;;;;;;14.77;10.32;;;;;;;;;;4990893;28;20130;-84
2022/03/21 11:10:16;;;;;;;15.07;10.52;;;;;;;;;;4988801;28;20054;-81
2022/03/21 11:12:54;;;;;;;15.27;10.43;;;;;;;;;;4994349;28;20070;-84
2022/03/21 11:15:21;;;;;;;14.25;8.98;;;;;;;;;;5008145;28;20038;-83
2022/03/21 11:17:47;;;;;;;13.82;9.75;;;;;;;;;;4991572;28;20066;-80
2022/03/21 11:20:15;;;;;;;14.35;9.32;;;;;;;;;;4989754;28;20148;-81
2022/03/21 11:22:43;;;;;;;13.27;8.82;;;;;;;;;;4983425;28;20042;-84
2022/03/21 11:25:12;;;;;;;14.80;9.52;;;;;;;;;;4985080;28;20089;-81
2022/03/21 11:27:56;;;;;;;13.35;9.10;;;;;;;;;;4986754;28;20523;-85
2022/03/21 11:30:47;;;;;;;14.25;9.50;;;;;;;;;;4988242;28;20054;-83
2022/03/21 11:33:20;;;;;;;15.63;9.65;;;;;;;;;;4986569;28;20122;-86
2022/03/21 11:35:52;;;;;;;12.68;9.38;;;;;;;;;;4988157;28;20074;-84
2022/03/21 11:38:23;;;;;;;12.18;8.68;;;;;;;;;;4984700;28;20102;-81
2022/03/21 11:40:52;;;;;;;12.63;8.90;;;;;;;;;;4988622;28;20043;-81
2022/03/21 11:43:26;;;;;;;13.00;8.88;;;;;;;;;;4989157;28;20069;-80
2022/03/21 11:45:55;;;;;;;12.43;8.93;;;;;;;;;;4988372;28;20102;-82
2022/03/21 11:48:35;;;;;;;14.73;9.10;;;;;;;;;;4985559;28;20095;-81
2022/03/21 11:51:34;;;;;;;15.38;9.18;;;;;;;;;;4988398;28;20136;-81
2022/03/21 11:54:01;;;;;;;12.10;8.70;;;;;;;;;;4988659;28;20077;-84
2022/03/21 11:57:04;;;;;;;13.00;8.57;;;;;;;;;;4988934;28;20077;-86
2022/03/21 11:59:51;;;;;;;11.77;9.85;;;;;;;;;;4991570;28;20078;-80
2022/03/21 12:03:00;;;;;;;13.57;8.90;;;;;;;;;;4986999;28;20145;-84
2022/03/21 12:05:50;;;;;;;12.10;8.73;;;;;;;;;;4987831;28;20042;-88
2022/03/21 12:08:33;;;;;;;13.63;8.80;;;;;;;;;;4988208;28;20057;-80
2022/03/21 12:11:00;;;;;;;14.25;9.25;;;;;;;;;;4984484;28;20082;-83
2022/03/21 12:13:39;;;;;;;11.90;8.18;;;;;;;;;;4988095;28;20078;-81
2022/03/21 12:16:17;;;;;;;15.75;9.65;;;;;;;;;;4988086;28;20085;-86
2022/03/21 12:19:01;;;;;;;13.25;9.48;;;;;;;;;;4989226;28;20066;-81
2022/03/21 12:21:28;;;;;;;13.00;9.80;;;;;;;;;;4987615;28;20046;-84
2022/03/21 12:24:14;;;;;;;13.98;9.60;;;;;;;;;;4989471;28;20069;-81
2022/03/21 12:26:49;;;;;;;11.70;8.23;;;;;;;;;;4989171;28;20082;-81
2022/03/21 12:29:33;;;;;;;13.97;8.83;;;;;;;;;;4987676;28;20050;-82
2022/03/21 12:32:25;;;;;;;12.63;9.68;;;;;;;;;;4984703;28;20403;-83
2022/03/21 12:34:53;;;;;;;12.23;9.20;;;;;;;;;;4988915;28;20089;-82
2022/03/21 12:37:42;;;;;;;11.90;7.97;;;;;;;;;;4987996;28;20456;-84
2022/03/21 12:40:11;;;;;;;13.60;9.05;;;;;;;;;;4983648;28;20168;-87
2022/03/21 12:42:43;;;;;;;13.88;9.55;;;;;;;;;;4981648;28;20069;-84
2022/03/21 12:45:17;;;;;;;11.40;8.45;;;;;;;;;;4997087;28;20129;-83
2022/03/21 12:47:44;;;;;;;11.45;8.77;;;;;;;;;;4995782;28;20050;-83
2022/03/21 12:50:10;;;;;;;13.65;9.45;;;;;;;;;;4997117;28;20061;-81
2022/03/21 12:52:37;;;;;;;12.40;8.52;;;;;;;;;;4997730;28;20046;-79
2022/03/21 12:55:05;;;;;;;11.95;8.65;;;;;;;;;;4996452;28;20074;-80
2022/03/21 12:57:33;;;;;;;11.73;8.40;;;;;;;;;;5001342;28;20475;-79
2022/03/21 13:00:16;;;;;;;13.27;8.45;;;;;;;;;;4999801;28;20415;-79
2022/03/21 13:02:43;;;;;;;12.13;8.73;;;;;;;;;;4993140;28;20087;-81
2022/03/21 13:10:40;;;;;;;11.88;8.75;;;;;;;;;;4999450;28;19965;-79
2022/03/21 13:13:06;;;;;;;13.07;8.50;;;;;;;;;;5000234;28;20122;-79
2022/03/21 13:15:35;;;;;;;11.20;9.02;;;;;;;;;;4997682;28;20074;-80
2022/03/21 13:18:04;;;;;;;12.82;9.10;;;;;;;;;;4997308;28;20085;-86
2022/03/21 13:20:33;;;;;;;11.73;9.20;;;;;;;;;;4995601;28;20076;-83
2022/03/21 13:23:01;;;;;;;12.27;8.27;;;;;;;;;;4995378;28;20053;-81
2022/03/21 13:25:30;;;;;;;11.65;8.57;;;;;;;;;;4995103;28;20087;-81
2022/03/21 13:28:08;;;;;;;14.07;9.18;;;;;;;;;;4994287;28;20197;-80
2022/03/21 13:30:36;;;;;;;13.18;8.20;;;;;;;;;;4992961;28;20089;-80
2022/03/21 13:33:03;;;;;;;12.45;8.52;;;;;;;;;;4978525;28;20042;-83
2022/03/21 13:35:32;;;;;;;13.32;8.43;;;;;;;;;;4991564;28;20530;-81
2022/03/21 13:38:02;;;;;;;12.02;8.10;;;;;;;;;;4993864;28;20137;-79
2022/03/21 13:40:29;;;;;;;11.00;8.00;;;;;;;;;;4994611;28;20438;-82
2022/03/21 13:42:56;;;;;;;11.23;8.43;;;;;;;;;;4991997;28;20137;-88
2022/03/21 13:45:22;;;;;;;12.07;8.30;;;;;;;;;;4990905;28;20042;-80
2022/03/21 13:47:53;;;;;;;12.88;8.90;;;;;;;;;;4993971;28;20545;-80
2022/03/21 13:50:29;;;;;;;12.15;8.10;;;;;;;;;;4991022;28;20046;-80
2022/03/21 13:52:56;;;;;;;12.27;8.75;;;;;;;;;;4992026;28;20051;-81
2022/03/21 13:55:39;;;;;;;15.23;8.02;;;;;;;;;;4992849;28;20384;-85
2022/03/21 13:58:06;;;;;;;11.32;8.20;;;;;;;;;;4991482;28;20046;-80
2022/03/21 14:00:36;;;;;;;10.77;8.02;;;;;;;;;;4992495;28;20121;-83
2022/03/21 14:03:07;;;;;;;10.65;8.18;;;;;;;;;;4994329;28;20487;-80
2022/03/21 14:05:35;;;;;;;10.27;8.05;;;;;;;;;;4993247;28;20518;-79
2022/03/21 14:08:12;;;;;;;13.18;8.25;;;;;;;;;;5003506;28;20068;-79
2022/03/21 14:10:40;;;;;;;10.45;7.65;;;;;;;;;;4989876;28;20084;-81
2022/03/21 14:13:13;;;;;;;11.77;8.52;;;;;;;;;;4992773;28;20038;-83
2022/03/21 14:15:39;;;;;;;10.95;8.35;;;;;;;;;;4987671;28;20124;-80
2022/03/21 14:18:10;;;;;;;12.07;8.73;;;;;;;;;;4995473;28;20075;-80
2022/03/21 14:20:37;;;;;;;13.52;7.82;;;;;;;;;;4995564;28;20088;-80
2022/03/21 14:23:03;;;;;;;11.63;8.18;;;;;;;;;;4994761;28;20450;-80
2022/03/21 14:28:14;;;;;;;10.30;8.73;;;;;;;;;;4988491;28;20057;-82
2022/03/21 14:30:41;;;;;;;16.10;7.68;;;;;;;;;;4991414;28;20137;-83
2022/03/21 14:33:09;;;;;;;14.52;9.38;;;;;;;;;;4991634;28;20070;-82
2022/03/21 14:35:35;;;;;;;12.77;7.93;;;;;;;;;;4993792;28;20117;-82
2022/03/21 14:38:02;;;;;;;12.93;8.95;;;;;;;;;;4988772;28;20078;-83
2022/03/21 14:40:28;;;;;;;10.45;8.07;;;;;;;;;;4991648;28;20069;-81
2022/03/21 14:42:55;;;;;;;10.75;7.28;;;;;;;;;;4991463;28;20129;-80
2022/03/21 14:45:22;;;;;;;11.50;7.88;;;;;;;;;;4993931;28;20035;-80
2022/03/21 14:47:48;;;;;;;9.27;7.63;;;;;;;;;;4995015;28;20191;-81
2022/03/21 14:50:16;;;;;;;10.52;7.18;;;;;;;;;;4992448;28;20360;-86
2022/03/21 14:52:43;;;;;;;12.80;8.70;;;;;;;;;;4991646;28;20463;-83
2022/03/21 14:55:09;;;;;;;10.02;7.82;;;;;;;;;;4991923;28;20050;-81
2022/03/21 14:57:36;;;;;;;9.55;7.40;;;;;;;;;;4993992;28;20089;-81
2022/03/21 15:00:03;;;;;;;10.82;7.38;;;;;;;;;;4986079;28;20534;-81
2022/03/21 15:02:30;;;;;;;9.77;7.70;;;;;;;;;;4985216;28;20038;-81
2022/03/21 15:04:56;;;;;;;11.85;8.50;;;;;;;;;;4988681;28;20129;-81
2022/03/21 15:07:26;;;;;;;11.18;8.18;;;;;;;;;;4989068;28;20519;-83
2022/03/21 15:12:36;;;;;;;10.10;7.82;;;;;;;;;;4988566;28;20053;-82
2022/03/21 15:15:03;;;;;;;9.43;7.20;;;;;;;;;;4990239;28;20038;-82